createdAt,value
2024-01-25T00:01:05.935Z,99317.11
2024-01-25T00:06:17.432Z,99314.92
2024-01-25T00:11:19.891Z,99319.48
2024-01-25T00:16:22.227Z,99332.66
2024-01-25T00:21:24.425Z,99334.65
2024-01-25T00:26:57.040Z,99333.58
2024-01-25T00:32:08.157Z,99331.48
2024-01-25T00:37:15.446Z,99331.09
2024-01-25T00:42:25.403Z,99327.61
2024-01-25T00:47:28.377Z,99326.44
2024-01-25T00:52:33.602Z,99320.77
2024-01-25T00:57:36.098Z,99322.65
2024-01-25T01:02:44.746Z,99323.65
2024-01-25T01:07:50.563Z,99321.52
2024-01-25T01:13:04.509Z,99327.06
2024-01-25T01:18:26.188Z,99327.02
2024-01-25T01:23:31.622Z,99318.70
2024-01-25T01:28:54.303Z,99325.32
2024-01-25T01:34:05.746Z,99325.03
2024-01-25T01:39:08.477Z,99319.92
2024-01-25T01:44:11.056Z,99329.67
2024-01-25T01:49:15.649Z,99326.07
2024-01-25T01:54:42.159Z,99327.45
2024-01-25T01:59:58.931Z,99323.49
2024-01-25T02:05:21.722Z,99315.75
2024-01-25T02:10:39.199Z,99311.71
2024-01-25T02:16:12.361Z,99312.41
2024-01-25T02:21:37.748Z,99312.77
2024-01-25T02:26:40.577Z,99315.30
2024-01-25T02:31:43.074Z,99321.80
2024-01-25T02:36:52.092Z,99316.38
2024-01-25T02:42:27.808Z,99324.77
2024-01-25T02:47:35.225Z,99335.94
2024-01-25T02:52:43.257Z,99337.88
2024-01-25T02:57:45.507Z,99342.60
2024-01-25T03:02:50.512Z,99346.87
2024-01-25T03:07:53.704Z,99345.94
2024-01-25T03:12:56.330Z,99353.30
2024-01-25T03:17:58.713Z,99354.45
2024-01-25T03:23:00.917Z,99352.98
2024-01-25T03:28:03.338Z,99356.78
2024-01-25T03:33:05.581Z,99363.98
2024-01-25T03:38:08.175Z,99356.25
2024-01-25T03:43:18.962Z,99348.38
2024-01-25T03:48:23.441Z,99350.80
2024-01-25T03:53:25.559Z,99353.73
2024-01-25T03:58:28.083Z,99356.71
2024-01-25T04:03:30.815Z,99349.84
2024-01-25T04:08:53.929Z,99352.12
2024-01-25T04:13:56.109Z,99352.20
2024-01-25T04:18:58.979Z,99354.55
2024-01-25T04:24:11.889Z,99358.11
2024-01-25T04:29:34.328Z,99360.95
2024-01-25T04:34:39.195Z,99369.58
2024-01-25T04:39:41.905Z,99374.93
2024-01-25T04:44:45.952Z,99375.48
2024-01-25T04:49:48.540Z,99380.10
2024-01-25T04:54:53.244Z,99382.83
2024-01-25T05:00:18.993Z,99384.61
2024-01-25T05:05:21.556Z,99392.92
2024-01-25T05:10:26.163Z,99390.67
2024-01-25T05:15:49.061Z,99387.69
2024-01-25T05:20:56.441Z,99394.39
2024-01-25T05:26:04.549Z,99386.23
2024-01-25T05:31:13.095Z,99388.09
2024-01-25T05:36:18.351Z,99387.55
2024-01-25T05:41:20.682Z,99384.77
2024-01-25T05:46:33.491Z,99393.57
2024-01-25T05:51:56.464Z,99398.73
2024-01-25T05:57:07.937Z,99403.73
2024-01-25T06:02:12.996Z,99411.70
2024-01-25T06:07:23.240Z,99416.54
2024-01-25T06:12:28.833Z,99416.00
2024-01-25T06:17:31.729Z,99421.50
2024-01-25T06:22:34.588Z,99427.36
2024-01-25T06:27:44.450Z,99431.34
2024-01-25T06:32:50.670Z,99435.31
2024-01-25T06:37:53.871Z,99433.40
2024-01-25T06:43:13.162Z,99431.47
2024-01-25T06:48:16.512Z,99432.84
2024-01-25T06:53:31.880Z,99431.33
2024-01-25T06:59:27.426Z,99440.02
2024-01-25T07:04:32.142Z,99444.27
2024-01-25T07:09:35.055Z,99451.75
2024-01-25T07:14:40.631Z,99457.52
2024-01-25T07:19:43.792Z,99459.48
2024-01-25T07:25:17.644Z,99456.80
2024-01-25T07:30:20.759Z,99462.55
2024-01-25T07:35:24.199Z,99471.77
2024-01-25T07:40:46.906Z,99481.29
2024-01-25T07:45:58.838Z,99475.07
2024-01-25T07:51:02.616Z,99478.85
2024-01-25T07:56:09.076Z,99482.27
2024-01-25T08:01:11.732Z,99481.58
2024-01-25T08:06:27.579Z,99483.84
2024-01-25T08:11:29.942Z,99488.85
2024-01-25T08:16:32.690Z,99492.80
2024-01-25T08:21:36.718Z,99490.89
2024-01-25T08:26:40.095Z,99488.29
2024-01-25T08:31:45.373Z,99491.40
2024-01-25T08:36:50.947Z,99503.27
2024-01-25T08:41:54.271Z,99504.51
2024-01-25T08:47:04.208Z,99509.79
2024-01-25T08:52:07.570Z,99510.95
2024-01-25T08:57:30.881Z,99515.80
2024-01-25T09:02:33.637Z,99521.12
2024-01-25T09:07:59.619Z,99535.47
2024-01-25T09:13:14.825Z,99547.56
2024-01-25T09:18:21.919Z,99560.01
2024-01-25T09:23:40.306Z,99579.05
2024-01-25T09:28:42.807Z,99584.06
2024-01-25T09:34:17.671Z,99579.91
2024-01-25T09:39:20.461Z,99583.73
2024-01-25T09:44:23.163Z,99594.55
2024-01-25T09:49:25.709Z,99596.96
2024-01-25T09:54:30.854Z,99607.33
2024-01-25T09:59:55.843Z,99615.40
2024-01-25T10:05:00.535Z,99616.17
2024-01-25T10:10:05.013Z,99625.29
2024-01-25T10:15:08.216Z,99632.20
2024-01-25T10:20:51.329Z,99638.45
2024-01-25T10:25:54.264Z,99648.37
2024-01-25T10:30:58.510Z,99657.30
2024-01-25T10:36:05.175Z,99655.66
2024-01-25T10:41:08.193Z,99660.30
2024-01-25T10:46:11.236Z,99661.83
2024-01-25T10:51:34.636Z,99668.23
2024-01-25T10:56:37.686Z,99675.83
2024-01-25T11:01:47.417Z,99674.56
2024-01-25T11:06:50.359Z,99675.52
2024-01-25T11:11:55.748Z,99680.15
2024-01-25T11:17:24.689Z,99682.33
2024-01-25T11:22:36.958Z,99685.17
2024-01-25T11:27:50.154Z,99690.46
2024-01-25T11:33:06.636Z,99694.95
2024-01-25T11:38:10.196Z,99705.02
2024-01-25T11:43:23.053Z,99714.17
2024-01-25T11:48:30.723Z,99717.49
2024-01-25T11:53:33.699Z,99728.42
2024-01-25T11:58:41.535Z,99730.72
2024-01-25T12:03:48.105Z,99741.98
2024-01-25T12:08:53.895Z,99745.77
2024-01-25T12:13:56.753Z,99753.21
2024-01-25T12:18:59.700Z,99758.16
2024-01-25T12:24:10.857Z,99763.14
2024-01-25T12:29:24.196Z,99770.23
2024-01-25T12:34:26.668Z,99778.91
2024-01-25T12:39:44.801Z,99792.46
2024-01-25T12:44:48.050Z,99807.09
2024-01-25T12:49:50.447Z,99831.60
2024-01-25T12:55:04.017Z,99849.73
2024-01-25T13:00:07.843Z,99874.30
2024-01-25T13:05:14.088Z,99883.21
2024-01-25T13:10:17.719Z,99886.10
2024-01-25T13:15:51.255Z,99886.96
2024-01-25T13:20:54.585Z,99893.81
2024-01-25T13:26:30.454Z,99895.80
2024-01-25T13:31:54.913Z,99908.81
2024-01-25T13:37:15.505Z,99912.63
2024-01-25T13:42:17.967Z,99919.72
2024-01-25T13:47:20.382Z,99926.84
2024-01-25T13:52:51.587Z,99939.80
2024-01-25T13:57:53.924Z,99948.45
2024-01-25T14:02:58.681Z,99951.23
2024-01-25T14:08:11.196Z,99965.37
2024-01-25T14:13:13.786Z,99980.06
2024-01-25T14:18:16.279Z,99984.75
2024-01-25T14:23:18.608Z,99997.38
2024-01-25T14:28:36.167Z,100008.65
2024-01-25T14:33:40.981Z,100019.39
2024-01-25T14:38:44.175Z,100032.21
2024-01-25T14:43:54.246Z,100044.49
2024-01-25T14:48:58.816Z,100055.91
2024-01-25T14:59:31.675Z,100079.93
2024-01-25T15:04:34.048Z,100086.51
2024-01-25T15:09:36.490Z,100092.89
2024-01-25T15:14:59.143Z,100094.28
2024-01-25T15:20:01.432Z,100115.85
2024-01-25T15:25:14.987Z,100127.06
2024-01-25T15:30:19.785Z,100141.17
2024-01-25T15:36:03.883Z,100147.90
2024-01-25T15:41:11.028Z,100149.63
2024-01-25T15:46:14.055Z,100163.60
2024-01-25T15:51:19.529Z,100172.38
2024-01-25T15:56:21.772Z,100178.23
2024-01-25T16:01:28.419Z,100181.86
2024-01-25T16:06:30.871Z,100193.92
2024-01-25T16:11:33.138Z,100206.16
2024-01-25T16:16:38.623Z,100218.39
2024-01-25T16:21:55.150Z,100223.91
2024-01-25T16:26:57.503Z,100232.36
2024-01-25T16:32:16.704Z,100237.36
2024-01-25T16:37:39.230Z,100245.12
2024-01-25T16:42:42.663Z,100252.87
2024-01-25T16:48:35.026Z,100262.87
2024-01-25T16:53:57.650Z,100274.43
2024-01-25T16:59:02.446Z,100280.98
2024-01-25T17:04:06.483Z,100287.18
2024-01-25T17:09:10.085Z,100303.21
2024-01-25T17:14:15.629Z,100317.52
2024-01-25T17:19:51.419Z,100326.64
2024-01-25T17:25:37.365Z,100334.58
2024-01-25T17:30:40.101Z,100342.84
2024-01-25T17:36:34.904Z,100350.77
2024-01-25T17:41:37.647Z,100368.34
2024-01-25T17:46:40.153Z,100376.44
2024-01-25T17:51:42.598Z,100373.84
2024-01-25T17:56:44.724Z,100381.77
2024-01-25T18:01:49.173Z,100385.20
2024-01-25T18:07:04.103Z,100388.80
2024-01-25T18:12:09.392Z,100394.30
2024-01-25T18:17:11.940Z,100404.81
2024-01-25T18:22:14.688Z,100413.77
2024-01-25T18:27:17.772Z,100425.30
2024-01-25T18:32:43.301Z,100432.52
2024-01-25T18:37:51.088Z,100434.92
2024-01-25T18:42:53.414Z,100438.36
2024-01-25T18:47:58.384Z,100437.14
2024-01-25T18:53:00.892Z,100438.85
2024-01-25T18:58:24.790Z,100442.11
2024-01-25T19:03:28.340Z,100451.23
2024-01-25T19:08:39.802Z,100454.64
2024-01-25T19:14:08.200Z,100461.38
2024-01-25T19:19:32.734Z,100470.48
2024-01-25T19:25:28.891Z,100476.65
2024-01-25T19:30:41.751Z,100483.67
2024-01-25T19:35:51.206Z,100478.64
2024-01-25T19:40:53.546Z,100480.17
2024-01-25T19:45:56.142Z,100483.09
2024-01-25T19:50:58.833Z,100487.02
2024-01-25T19:56:01.090Z,100493.69
2024-01-25T20:01:24.195Z,100496.45
2024-01-25T20:06:30.267Z,100502.63
2024-01-25T20:11:32.420Z,100510.89
2024-01-25T20:16:37.592Z,100519.47
2024-01-25T20:21:53.565Z,100532.35
2024-01-25T20:27:39.616Z,100535.80
2024-01-25T20:33:29.000Z,100532.88
2024-01-25T20:38:31.633Z,100523.91
2024-01-25T20:43:50.415Z,100526.99
2024-01-25T20:49:25.152Z,100527.68
2024-01-25T20:55:30.476Z,100530.95
2024-01-25T21:00:53.470Z,100536.77
2024-01-25T21:06:04.738Z,100540.23
2024-01-25T21:11:37.699Z,100552.97
2024-01-25T21:16:46.601Z,100560.54
2024-01-25T21:22:12.424Z,100567.27
2024-01-25T21:27:25.161Z,100568.44
2024-01-25T21:32:28.611Z,100557.40
2024-01-25T21:37:31.319Z,100562.17
2024-01-25T21:42:56.984Z,100567.48
2024-01-25T21:47:59.506Z,100566.81
2024-01-25T21:53:02.358Z,100572.15
2024-01-25T21:58:05.201Z,100578.85
2024-01-25T22:03:10.698Z,100592.10
2024-01-25T22:08:14.956Z,100598.65
2024-01-25T22:13:17.906Z,100606.90
2024-01-25T22:18:25.778Z,100610.70
2024-01-25T22:23:30.659Z,100617.60
2024-01-25T22:28:58.270Z,100632.73
2024-01-25T22:34:01.452Z,100633.41
2024-01-25T22:39:04.473Z,100640.27
2024-01-25T22:44:10.131Z,100647.66
2024-01-25T22:49:12.627Z,100654.36
2024-01-25T22:54:15.153Z,100662.09
2024-01-25T22:59:17.382Z,100675.70
2024-01-25T23:04:19.526Z,100681.55
2024-01-25T23:09:21.881Z,100688.91
2024-01-25T23:14:23.781Z,100700.80
2024-01-25T23:19:29.317Z,100709.92
2024-01-25T23:24:31.432Z,100715.26
2024-01-25T23:29:33.447Z,100712.84
2024-01-25T23:34:36.029Z,100723.99
2024-01-25T23:39:38.325Z,100726.21
2024-01-25T23:44:41.079Z,100730.50
2024-01-25T23:49:44.687Z,100735.82
2024-01-25T23:54:47.110Z,100742.86
